createdAt,value
2022-08-20T00:21:58.194Z,29.53
2022-08-20T00:52:01.356Z,27.85
2022-08-20T01:22:05.550Z,29.65
2022-08-20T01:52:08.478Z,27.13
2022-08-20T02:22:12.260Z,25.03
2022-08-20T02:52:15.165Z,26.43
2022-08-20T03:22:19.556Z,24.10
2022-08-20T03:52:22.319Z,23.60
2022-08-20T04:22:26.711Z,28.00
2022-08-20T04:52:29.526Z,26.30
2022-08-20T05:22:32.806Z,29.03
2022-08-20T05:52:35.541Z,31.70
2022-08-20T06:22:39.191Z,30.78
2022-08-20T06:52:52.535Z,25.55
2022-08-20T07:22:56.740Z,24.27
2022-08-20T07:52:59.646Z,24.20
2022-08-20T08:23:03.518Z,21.27
2022-08-20T08:53:06.246Z,20.73
2022-08-20T09:23:14.054Z,20.83
2022-08-20T10:23:20.068Z,20.03
2022-08-20T10:53:22.955Z,20.30
2022-08-20T11:23:27.666Z,21.38
2022-08-20T11:53:30.393Z,19.43
2022-08-20T12:23:36.044Z,17.83
2022-08-20T12:53:38.892Z,16.97
2022-08-20T13:23:42.578Z,16.90
2022-08-20T13:53:45.317Z,17.68
2022-08-20T14:23:51.281Z,17.98
2022-08-20T14:53:54.081Z,17.10
2022-08-20T15:23:58.090Z,6.43
2022-08-20T15:54:00.828Z,6.20
2022-08-20T16:24:04.535Z,7.48
2022-08-20T16:54:07.299Z,12.00
2022-08-20T17:24:16.724Z,8.80
2022-08-20T17:54:19.997Z,6.63
2022-08-20T18:24:24.009Z,5.50
2022-08-20T18:54:26.903Z,5.38
2022-08-20T19:24:31.086Z,4.50
2022-08-20T19:54:34.099Z,5.07
2022-08-20T20:24:38.210Z,5.30
2022-08-20T20:54:41.002Z,5.33
2022-08-20T21:24:45.739Z,6.50
2022-08-20T21:54:48.591Z,6.45
2022-08-20T22:24:52.389Z,6.47
2022-08-20T22:54:55.737Z,6.10
2022-08-20T23:25:00.956Z,5.03
2022-08-20T23:55:05.130Z,5.45
